sensor_id;sensor_type;location;lat;lon;timestamp;temperature;humidity
25112;DHT22;13092;51.996;4.458;2023-08-08T00:02:03;18.20;99.90
25112;DHT22;13092;51.996;4.458;2023-08-08T00:04:34;18.20;99.90
25112;DHT22;13092;51.996;4.458;2023-08-08T00:07:05;18.20;99.90
25112;DHT22;13092;51.996;4.458;2023-08-08T00:09:34;18.20;99.90
25112;DHT22;13092;51.996;4.458;2023-08-08T00:12:03;18.20;99.90
25112;DHT22;13092;51.996;4.458;2023-08-08T00:14:31;18.20;99.90
25112;DHT22;13092;51.996;4.458;2023-08-08T00:17:00;18.20;99.90
25112;DHT22;13092;51.996;4.458;2023-08-08T00:19:28;18.30;99.90
25112;DHT22;13092;51.996;4.458;2023-08-08T00:21:58;18.30;99.90
25112;DHT22;13092;51.996;4.458;2023-08-08T00:24:26;18.30;99.90
25112;DHT22;13092;51.996;4.458;2023-08-08T00:26:55;18.30;99.90
25112;DHT22;13092;51.996;4.458;2023-08-08T00:29:23;18.30;99.90
25112;DHT22;13092;51.996;4.458;2023-08-08T00:31:51;18.20;99.90
25112;DHT22;13092;51.996;4.458;2023-08-08T00:34:19;18.10;99.90
25112;DHT22;13092;51.996;4.458;2023-08-08T00:36:48;18.00;99.90
25112;DHT22;13092;51.996;4.458;2023-08-08T00:39:17;18.00;99.90
25112;DHT22;13092;51.996;4.458;2023-08-08T00:41:46;18.10;99.90
25112;DHT22;13092;51.996;4.458;2023-08-08T00:44:14;18.00;99.90
25112;DHT22;13092;51.996;4.458;2023-08-08T00:46:44;18.10;99.90
25112;DHT22;13092;51.996;4.458;2023-08-08T00:49:12;18.10;99.90
25112;DHT22;13092;51.996;4.458;2023-08-08T00:51:40;18.10;99.90
25112;DHT22;13092;51.996;4.458;2023-08-08T00:54:10;18.10;99.90
25112;DHT22;13092;51.996;4.458;2023-08-08T00:56:40;18.10;99.90
25112;DHT22;13092;51.996;4.458;2023-08-08T00:59:09;18.20;99.90
25112;DHT22;13092;51.996;4.458;2023-08-08T01:01:40;18.20;99.90
25112;DHT22;13092;51.996;4.458;2023-08-08T01:04:08;18.20;99.90
25112;DHT22;13092;51.996;4.458;2023-08-08T01:06:43;18.20;99.90
25112;DHT22;13092;51.996;4.458;2023-08-08T01:09:18;18.10;99.90
25112;DHT22;13092;51.996;4.458;2023-08-08T01:11:52;18.20;99.90
25112;DHT22;13092;51.996;4.458;2023-08-08T01:14:22;18.10;99.90
25112;DHT22;13092;51.996;4.458;2023-08-08T01:16:52;18.20;99.90
25112;DHT22;13092;51.996;4.458;2023-08-08T01:19:28;18.20;99.90
25112;DHT22;13092;51.996;4.458;2023-08-08T01:21:58;18.20;99.90
25112;DHT22;13092;51.996;4.458;2023-08-08T01:24:31;18.30;99.90
25112;DHT22;13092;51.996;4.458;2023-08-08T01:27:04;18.30;99.90
25112;DHT22;13092;51.996;4.458;2023-08-08T01:29:33;18.20;99.90
25112;DHT22;13092;51.996;4.458;2023-08-08T01:32:03;18.20;99.90
25112;DHT22;13092;51.996;4.458;2023-08-08T01:34:33;18.20;99.90
25112;DHT22;13092;51.996;4.458;2023-08-08T01:37:07;18.10;99.90
25112;DHT22;13092;51.996;4.458;2023-08-08T01:39:41;18.10;99.90
25112;DHT22;13092;51.996;4.458;2023-08-08T01:42:11;18.00;99.90
25112;DHT22;13092;51.996;4.458;2023-08-08T01:44:41;18.00;99.90
25112;DHT22;13092;51.996;4.458;2023-08-08T01:47:09;18.10;99.90
25112;DHT22;13092;51.996;4.458;2023-08-08T01:49:38;18.00;99.90
25112;DHT22;13092;51.996;4.458;2023-08-08T01:52:06;18.00;99.90
25112;DHT22;13092;51.996;4.458;2023-08-08T01:54:34;17.90;99.90
25112;DHT22;13092;51.996;4.458;2023-08-08T01:57:05;17.90;99.90
25112;DHT22;13092;51.996;4.458;2023-08-08T01:59:33;17.90;99.90
25112;DHT22;13092;51.996;4.458;2023-08-08T02:02:01;17.90;99.90
25112;DHT22;13092;51.996;4.458;2023-08-08T02:04:29;17.90;99.90
25112;DHT22;13092;51.996;4.458;2023-08-08T02:07:00;17.90;99.90
25112;DHT22;13092;51.996;4.458;2023-08-08T02:09:28;17.90;99.90
25112;DHT22;13092;51.996;4.458;2023-08-08T02:11:56;17.80;99.90
25112;DHT22;13092;51.996;4.458;2023-08-08T02:14:26;17.80;99.90
25112;DHT22;13092;51.996;4.458;2023-08-08T02:16:55;17.90;99.90
25112;DHT22;13092;51.996;4.458;2023-08-08T02:19:23;17.80;99.90
25112;DHT22;13092;51.996;4.458;2023-08-08T02:21:51;17.80;99.90
25112;DHT22;13092;51.996;4.458;2023-08-08T02:24:19;17.70;99.90
25112;DHT22;13092;51.996;4.458;2023-08-08T02:26:47;17.70;99.90
25112;DHT22;13092;51.996;4.458;2023-08-08T02:29:15;17.70;99.90
25112;DHT22;13092;51.996;4.458;2023-08-08T02:31:45;17.70;99.90
25112;DHT22;13092;51.996;4.458;2023-08-08T02:34:16;17.70;99.90
25112;DHT22;13092;51.996;4.458;2023-08-08T02:36:49;17.70;99.90
25112;DHT22;13092;51.996;4.458;2023-08-08T02:39:20;17.70;99.90
25112;DHT22;13092;51.996;4.458;2023-08-08T02:41:51;17.80;99.90
25112;DHT22;13092;51.996;4.458;2023-08-08T02:44:19;17.60;99.90
25112;DHT22;13092;51.996;4.458;2023-08-08T02:46:50;17.60;99.90
25112;DHT22;13092;51.996;4.458;2023-08-08T02:49:18;17.50;99.90
25112;DHT22;13092;51.996;4.458;2023-08-08T02:51:46;17.50;99.90
25112;DHT22;13092;51.996;4.458;2023-08-08T02:54:17;17.50;99.90
25112;DHT22;13092;51.996;4.458;2023-08-08T02:56:45;17.60;99.90
25112;DHT22;13092;51.996;4.458;2023-08-08T02:59:13;17.40;99.90
25112;DHT22;13092;51.996;4.458;2023-08-08T03:01:43;17.40;99.90
25112;DHT22;13092;51.996;4.458;2023-08-08T03:04:13;17.40;99.90
25112;DHT22;13092;51.996;4.458;2023-08-08T03:06:41;17.30;99.90
25112;DHT22;13092;51.996;4.458;2023-08-08T03:09:10;17.30;99.90
25112;DHT22;13092;51.996;4.458;2023-08-08T03:11:38;17.30;99.90
25112;DHT22;13092;51.996;4.458;2023-08-08T03:14:08;17.30;99.90
25112;DHT22;13092;51.996;4.458;2023-08-08T03:16:36;17.30;99.90
25112;DHT22;13092;51.996;4.458;2023-08-08T03:19:04;17.30;99.90
25112;DHT22;13092;51.996;4.458;2023-08-08T03:21:34;17.30;99.90
25112;DHT22;13092;51.996;4.458;2023-08-08T03:24:03;17.30;99.90
25112;DHT22;13092;51.996;4.458;2023-08-08T03:26:31;17.30;99.90
25112;DHT22;13092;51.996;4.458;2023-08-08T03:29:02;17.30;99.90
25112;DHT22;13092;51.996;4.458;2023-08-08T03:31:31;17.30;99.90
25112;DHT22;13092;51.996;4.458;2023-08-08T03:34:01;17.30;99.90
25112;DHT22;13092;51.996;4.458;2023-08-08T03:36:30;17.50;99.90
25112;DHT22;13092;51.996;4.458;2023-08-08T03:38:59;17.40;99.90
25112;DHT22;13092;51.996;4.458;2023-08-08T03:41:28;17.40;99.90
25112;DHT22;13092;51.996;4.458;2023-08-08T03:43:59;17.40;99.90
25112;DHT22;13092;51.996;4.458;2023-08-08T03:46:29;17.40;99.90
25112;DHT22;13092;51.996;4.458;2023-08-08T03:48:57;17.40;99.90
25112;DHT22;13092;51.996;4.458;2023-08-08T03:51:26;17.40;99.90
25112;DHT22;13092;51.996;4.458;2023-08-08T03:53:59;17.50;99.90
25112;DHT22;13092;51.996;4.458;2023-08-08T03:56:27;17.50;99.90
25112;DHT22;13092;51.996;4.458;2023-08-08T03:58:58;17.50;99.90
25112;DHT22;13092;51.996;4.458;2023-08-08T04:01:30;17.40;99.90
25112;DHT22;13092;51.996;4.458;2023-08-08T04:03:58;17.40;99.90
25112;DHT22;13092;51.996;4.458;2023-08-08T04:06:27;17.40;99.90
25112;DHT22;13092;51.996;4.458;2023-08-08T04:08:55;17.40;99.90
25112;DHT22;13092;51.996;4.458;2023-08-08T04:11:25;17.30;99.90
25112;DHT22;13092;51.996;4.458;2023-08-08T04:13:53;17.30;99.90
25112;DHT22;13092;51.996;4.458;2023-08-08T04:16:24;17.20;99.90
25112;DHT22;13092;51.996;4.458;2023-08-08T04:18:52;17.20;99.90
25112;DHT22;13092;51.996;4.458;2023-08-08T04:21:21;17.20;99.90
25112;DHT22;13092;51.996;4.458;2023-08-08T04:23:53;17.20;99.90
25112;DHT22;13092;51.996;4.458;2023-08-08T04:26:21;17.10;99.90
25112;DHT22;13092;51.996;4.458;2023-08-08T04:28:51;17.10;99.90
25112;DHT22;13092;51.996;4.458;2023-08-08T04:31:19;17.00;99.90
25112;DHT22;13092;51.996;4.458;2023-08-08T04:33:50;17.00;99.90
25112;DHT22;13092;51.996;4.458;2023-08-08T04:36:23;16.90;99.90
25112;DHT22;13092;51.996;4.458;2023-08-08T04:38:54;16.90;99.90
25112;DHT22;13092;51.996;4.458;2023-08-08T04:41:22;16.80;99.90
25112;DHT22;13092;51.996;4.458;2023-08-08T04:43:51;16.80;99.90
25112;DHT22;13092;51.996;4.458;2023-08-08T04:46:21;16.80;99.90
25112;DHT22;13092;51.996;4.458;2023-08-08T04:48:50;16.80;99.90
25112;DHT22;13092;51.996;4.458;2023-08-08T04:51:18;16.90;99.90
25112;DHT22;13092;51.996;4.458;2023-08-08T04:53:46;16.90;99.90
25112;DHT22;13092;51.996;4.458;2023-08-08T04:56:17;16.80;99.90
25112;DHT22;13092;51.996;4.458;2023-08-08T04:58:45;17.00;99.90
25112;DHT22;13092;51.996;4.458;2023-08-08T05:01:17;17.00;99.90
25112;DHT22;13092;51.996;4.458;2023-08-08T05:03:47;17.10;99.90
25112;DHT22;13092;51.996;4.458;2023-08-08T05:06:22;17.10;99.90
25112;DHT22;13092;51.996;4.458;2023-08-08T05:08:51;16.90;99.90
25112;DHT22;13092;51.996;4.458;2023-08-08T05:11:23;17.10;99.90
25112;DHT22;13092;51.996;4.458;2023-08-08T05:13:53;17.10;99.90
25112;DHT22;13092;51.996;4.458;2023-08-08T05:16:22;17.20;99.90
25112;DHT22;13092;51.996;4.458;2023-08-08T05:18:51;17.20;99.90
25112;DHT22;13092;51.996;4.458;2023-08-08T05:21:21;17.20;99.90
25112;DHT22;13092;51.996;4.458;2023-08-08T05:23:51;17.20;99.90
25112;DHT22;13092;51.996;4.458;2023-08-08T05:26:20;17.30;99.90
25112;DHT22;13092;51.996;4.458;2023-08-08T05:28:48;17.30;99.90
25112;DHT22;13092;51.996;4.458;2023-08-08T05:31:16;17.20;99.90
25112;DHT22;13092;51.996;4.458;2023-08-08T05:33:47;17.30;99.90
25112;DHT22;13092;51.996;4.458;2023-08-08T05:36:18;17.20;99.90
25112;DHT22;13092;51.996;4.458;2023-08-08T05:38:46;17.20;99.90
25112;DHT22;13092;51.996;4.458;2023-08-08T05:41:14;17.20;99.90
25112;DHT22;13092;51.996;4.458;2023-08-08T05:43:45;17.20;99.90
25112;DHT22;13092;51.996;4.458;2023-08-08T05:46:13;17.20;99.90
25112;DHT22;13092;51.996;4.458;2023-08-08T05:48:41;17.30;99.90
25112;DHT22;13092;51.996;4.458;2023-08-08T05:51:13;17.30;99.90
25112;DHT22;13092;51.996;4.458;2023-08-08T05:53:41;17.30;99.90
25112;DHT22;13092;51.996;4.458;2023-08-08T05:56:10;17.40;99.90
25112;DHT22;13092;51.996;4.458;2023-08-08T05:58:38;17.40;99.90
25112;DHT22;13092;51.996;4.458;2023-08-08T06:01:09;17.40;99.90
25112;DHT22;13092;51.996;4.458;2023-08-08T06:03:39;17.50;99.90
25112;DHT22;13092;51.996;4.458;2023-08-08T06:06:07;17.50;99.90
25112;DHT22;13092;51.996;4.458;2023-08-08T06:08:37;17.60;99.90
25112;DHT22;13092;51.996;4.458;2023-08-08T06:11:05;17.50;99.90
25112;DHT22;13092;51.996;4.458;2023-08-08T06:13:34;17.60;99.90
25112;DHT22;13092;51.996;4.458;2023-08-08T06:16:02;17.60;99.90
25112;DHT22;13092;51.996;4.458;2023-08-08T06:18:34;17.70;99.90
25112;DHT22;13092;51.996;4.458;2023-08-08T06:21:02;17.70;99.90
25112;DHT22;13092;51.996;4.458;2023-08-08T06:23:30;17.70;99.90
25112;DHT22;13092;51.996;4.458;2023-08-08T06:26:06;17.70;99.90
25112;DHT22;13092;51.996;4.458;2023-08-08T06:28:35;17.60;99.90
25112;DHT22;13092;51.996;4.458;2023-08-08T06:31:06;17.70;99.90
25112;DHT22;13092;51.996;4.458;2023-08-08T06:33:37;17.80;99.90
25112;DHT22;13092;51.996;4.458;2023-08-08T06:36:05;17.70;99.90
25112;DHT22;13092;51.996;4.458;2023-08-08T06:38:37;17.80;99.90
25112;DHT22;13092;51.996;4.458;2023-08-08T06:41:06;17.90;99.90
25112;DHT22;13092;51.996;4.458;2023-08-08T06:43:35;17.90;99.90
25112;DHT22;13092;51.996;4.458;2023-08-08T06:46:05;17.80;99.90
25112;DHT22;13092;51.996;4.458;2023-08-08T06:48:33;17.90;99.90
25112;DHT22;13092;51.996;4.458;2023-08-08T06:51:02;18.00;99.90
25112;DHT22;13092;51.996;4.458;2023-08-08T06:53:34;18.00;99.90
25112;DHT22;13092;51.996;4.458;2023-08-08T06:56:06;18.00;99.90
25112;DHT22;13092;51.996;4.458;2023-08-08T06:59:05;18.10;99.90
25112;DHT22;13092;51.996;4.458;2023-08-08T07:01:39;18.10;99.90
25112;DHT22;13092;51.996;4.458;2023-08-08T07:04:07;18.10;99.90
25112;DHT22;13092;51.996;4.458;2023-08-08T07:06:35;18.10;99.90
25112;DHT22;13092;51.996;4.458;2023-08-08T07:09:06;18.10;99.90
25112;DHT22;13092;51.996;4.458;2023-08-08T07:11:38;18.00;99.90
25112;DHT22;13092;51.996;4.458;2023-08-08T07:14:07;18.10;99.90
25112;DHT22;13092;51.996;4.458;2023-08-08T07:16:35;18.10;99.90
25112;DHT22;13092;51.996;4.458;2023-08-08T07:19:05;18.20;99.90
25112;DHT22;13092;51.996;4.458;2023-08-08T07:21:35;18.10;99.90
25112;DHT22;13092;51.996;4.458;2023-08-08T07:24:04;18.30;99.90
25112;DHT22;13092;51.996;4.458;2023-08-08T07:26:33;18.40;99.90
25112;DHT22;13092;51.996;4.458;2023-08-08T07:29:03;18.60;99.90
25112;DHT22;13092;51.996;4.458;2023-08-08T07:31:32;18.50;99.90
25112;DHT22;13092;51.996;4.458;2023-08-08T07:34:01;18.50;99.90
25112;DHT22;13092;51.996;4.458;2023-08-08T07:36:29;18.50;99.90
25112;DHT22;13092;51.996;4.458;2023-08-08T07:38:57;18.50;99.90
25112;DHT22;13092;51.996;4.458;2023-08-08T07:41:30;18.60;99.90
25112;DHT22;13092;51.996;4.458;2023-08-08T07:43:58;18.60;99.90
25112;DHT22;13092;51.996;4.458;2023-08-08T07:46:29;18.50;99.90
25112;DHT22;13092;51.996;4.458;2023-08-08T07:48:57;18.50;99.90
25112;DHT22;13092;51.996;4.458;2023-08-08T07:51:30;18.70;99.90
25112;DHT22;13092;51.996;4.458;2023-08-08T07:53:58;18.70;99.90
25112;DHT22;13092;51.996;4.458;2023-08-08T07:56:27;18.70;99.90
25112;DHT22;13092;51.996;4.458;2023-08-08T07:58:56;18.60;99.90
25112;DHT22;13092;51.996;4.458;2023-08-08T08:01:24;18.70;99.90
25112;DHT22;13092;51.996;4.458;2023-08-08T08:03:55;18.70;99.90
25112;DHT22;13092;51.996;4.458;2023-08-08T08:06:24;18.70;99.90
25112;DHT22;13092;51.996;4.458;2023-08-08T08:08:55;18.70;99.90
25112;DHT22;13092;51.996;4.458;2023-08-08T08:11:24;18.70;99.90
25112;DHT22;13092;51.996;4.458;2023-08-08T08:13:52;18.70;99.90
25112;DHT22;13092;51.996;4.458;2023-08-08T08:16:21;18.70;99.90
25112;DHT22;13092;51.996;4.458;2023-08-08T08:18:49;18.80;99.90
25112;DHT22;13092;51.996;4.458;2023-08-08T08:21:20;18.80;99.90
25112;DHT22;13092;51.996;4.458;2023-08-08T08:23:52;18.90;99.90
25112;DHT22;13092;51.996;4.458;2023-08-08T08:26:21;18.90;99.90
25112;DHT22;13092;51.996;4.458;2023-08-08T08:28:50;18.90;99.90
25112;DHT22;13092;51.996;4.458;2023-08-08T08:31:18;19.00;99.90
25112;DHT22;13092;51.996;4.458;2023-08-08T08:33:47;19.10;99.90
25112;DHT22;13092;51.996;4.458;2023-08-08T08:36:23;19.10;99.90
25112;DHT22;13092;51.996;4.458;2023-08-08T08:38:53;19.20;99.90
25112;DHT22;13092;51.996;4.458;2023-08-08T08:41:25;19.20;99.90
25112;DHT22;13092;51.996;4.458;2023-08-08T08:43:54;19.30;99.90
25112;DHT22;13092;51.996;4.458;2023-08-08T08:46:25;19.30;99.90
25112;DHT22;13092;51.996;4.458;2023-08-08T08:48:55;19.30;99.90
25112;DHT22;13092;51.996;4.458;2023-08-08T08:51:25;19.20;99.90
25112;DHT22;13092;51.996;4.458;2023-08-08T08:53:54;19.20;99.90
25112;DHT22;13092;51.996;4.458;2023-08-08T08:56:22;19.10;99.90
25112;DHT22;13092;51.996;4.458;2023-08-08T08:58:51;19.00;99.90
25112;DHT22;13092;51.996;4.458;2023-08-08T09:01:19;18.90;99.90
25112;DHT22;13092;51.996;4.458;2023-08-08T09:03:49;18.80;99.90
25112;DHT22;13092;51.996;4.458;2023-08-08T09:06:17;18.90;99.90
25112;DHT22;13092;51.996;4.458;2023-08-08T09:08:49;19.00;99.90
25112;DHT22;13092;51.996;4.458;2023-08-08T09:11:23;19.20;99.90
25112;DHT22;13092;51.996;4.458;2023-08-08T09:13:52;19.20;99.90
25112;DHT22;13092;51.996;4.458;2023-08-08T09:16:23;19.20;99.90
25112;DHT22;13092;51.996;4.458;2023-08-08T09:18:52;19.10;99.90
25112;DHT22;13092;51.996;4.458;2023-08-08T09:21:20;19.20;99.90
25112;DHT22;13092;51.996;4.458;2023-08-08T09:23:50;19.30;99.90
25112;DHT22;13092;51.996;4.458;2023-08-08T09:26:19;19.40;99.90
25112;DHT22;13092;51.996;4.458;2023-08-08T09:28:47;19.50;99.90
25112;DHT22;13092;51.996;4.458;2023-08-08T09:31:16;19.50;99.90
25112;DHT22;13092;51.996;4.458;2023-08-08T09:33:45;19.40;99.90
25112;DHT22;13092;51.996;4.458;2023-08-08T09:36:15;19.30;99.90
25112;DHT22;13092;51.996;4.458;2023-08-08T09:38:44;19.20;99.90
25112;DHT22;13092;51.996;4.458;2023-08-08T09:41:14;19.20;99.90
25112;DHT22;13092;51.996;4.458;2023-08-08T09:43:43;19.40;99.90
25112;DHT22;13092;51.996;4.458;2023-08-08T09:46:12;19.10;99.90
25112;DHT22;13092;51.996;4.458;2023-08-08T09:48:43;19.10;99.90
25112;DHT22;13092;51.996;4.458;2023-08-08T09:51:16;19.10;99.90
25112;DHT22;13092;51.996;4.458;2023-08-08T09:53:45;19.20;99.90
25112;DHT22;13092;51.996;4.458;2023-08-08T09:56:17;19.10;99.90
25112;DHT22;13092;51.996;4.458;2023-08-08T09:58:46;19.10;99.90
25112;DHT22;13092;51.996;4.458;2023-08-08T10:01:15;19.20;99.90
25112;DHT22;13092;51.996;4.458;2023-08-08T10:03:46;19.30;99.90
25112;DHT22;13092;51.996;4.458;2023-08-08T10:06:15;19.40;99.90
25112;DHT22;13092;51.996;4.458;2023-08-08T10:08:44;19.50;99.90
25112;DHT22;13092;51.996;4.458;2023-08-08T10:11:16;19.80;99.90
25112;DHT22;13092;51.996;4.458;2023-08-08T10:13:53;19.90;99.90
25112;DHT22;13092;51.996;4.458;2023-08-08T10:16:26;20.00;99.90
25112;DHT22;13092;51.996;4.458;2023-08-08T10:18:58;19.80;99.90
25112;DHT22;13092;51.996;4.458;2023-08-08T10:21:33;19.80;99.90
25112;DHT22;13092;51.996;4.458;2023-08-08T10:24:13;19.80;99.90
25112;DHT22;13092;51.996;4.458;2023-08-08T10:26:58;19.90;99.90
25112;DHT22;13092;51.996;4.458;2023-08-08T10:29:33;19.90;99.90
25112;DHT22;13092;51.996;4.458;2023-08-08T10:32:03;19.90;99.90
25112;DHT22;13092;51.996;4.458;2023-08-08T10:34:38;20.10;99.90
25112;DHT22;13092;51.996;4.458;2023-08-08T10:37:16;20.20;99.90
25112;DHT22;13092;51.996;4.458;2023-08-08T10:39:51;20.30;99.90
25112;DHT22;13092;51.996;4.458;2023-08-08T10:42:27;20.40;99.90
25112;DHT22;13092;51.996;4.458;2023-08-08T10:45:09;20.40;99.90
25112;DHT22;13092;51.996;4.458;2023-08-08T10:47:38;20.40;99.90
25112;DHT22;13092;51.996;4.458;2023-08-08T10:50:10;20.50;99.90
25112;DHT22;13092;51.996;4.458;2023-08-08T10:52:52;20.60;99.90
25112;DHT22;13092;51.996;4.458;2023-08-08T10:55:24;20.60;99.90
25112;DHT22;13092;51.996;4.458;2023-08-08T10:57:57;20.80;99.90
25112;DHT22;13092;51.996;4.458;2023-08-08T11:00:29;20.70;99.90
25112;DHT22;13092;51.996;4.458;2023-08-08T11:03:03;20.60;99.90
25112;DHT22;13092;51.996;4.458;2023-08-08T11:05:34;20.50;99.90
25112;DHT22;13092;51.996;4.458;2023-08-08T11:08:13;20.60;99.90
25112;DHT22;13092;51.996;4.458;2023-08-08T11:10:44;20.70;99.90
25112;DHT22;13092;51.996;4.458;2023-08-08T11:13:14;20.40;99.90
25112;DHT22;13092;51.996;4.458;2023-08-08T11:15:43;20.20;99.90
25112;DHT22;13092;51.996;4.458;2023-08-08T11:18:12;20.40;99.90
25112;DHT22;13092;51.996;4.458;2023-08-08T11:20:43;20.20;99.90
25112;DHT22;13092;51.996;4.458;2023-08-08T11:23:11;20.00;99.90
25112;DHT22;13092;51.996;4.458;2023-08-08T11:25:41;20.00;99.90
25112;DHT22;13092;51.996;4.458;2023-08-08T11:28:10;20.00;99.90
25112;DHT22;13092;51.996;4.458;2023-08-08T11:30:43;20.20;99.90
25112;DHT22;13092;51.996;4.458;2023-08-08T11:33:13;20.50;99.90
25112;DHT22;13092;51.996;4.458;2023-08-08T11:35:45;20.50;99.90
25112;DHT22;13092;51.996;4.458;2023-08-08T11:38:16;20.50;99.90
25112;DHT22;13092;51.996;4.458;2023-08-08T11:40:45;20.50;99.90
25112;DHT22;13092;51.996;4.458;2023-08-08T11:43:14;20.30;99.90
25112;DHT22;13092;51.996;4.458;2023-08-08T11:45:44;20.40;99.90
25112;DHT22;13092;51.996;4.458;2023-08-08T11:48:12;20.40;99.90
25112;DHT22;13092;51.996;4.458;2023-08-08T11:50:41;20.30;99.90
25112;DHT22;13092;51.996;4.458;2023-08-08T11:53:11;20.40;99.90
25112;DHT22;13092;51.996;4.458;2023-08-08T11:55:41;20.70;99.90
25112;DHT22;13092;51.996;4.458;2023-08-08T11:58:12;20.80;99.90
25112;DHT22;13092;51.996;4.458;2023-08-08T12:00:44;20.90;99.90
25112;DHT22;13092;51.996;4.458;2023-08-08T12:03:14;21.10;99.90
25112;DHT22;13092;51.996;4.458;2023-08-08T12:05:45;21.10;99.90
25112;DHT22;13092;51.996;4.458;2023-08-08T12:08:17;21.10;99.90
25112;DHT22;13092;51.996;4.458;2023-08-08T12:10:48;21.20;99.90
25112;DHT22;13092;51.996;4.458;2023-08-08T12:13:20;21.10;99.90
25112;DHT22;13092;51.996;4.458;2023-08-08T12:15:52;21.00;99.90
25112;DHT22;13092;51.996;4.458;2023-08-08T12:18:22;21.00;99.90
25112;DHT22;13092;51.996;4.458;2023-08-08T12:20:51;20.80;99.90
25112;DHT22;13092;51.996;4.458;2023-08-08T12:23:19;20.60;99.90
25112;DHT22;13092;51.996;4.458;2023-08-08T12:25:47;20.60;99.90
25112;DHT22;13092;51.996;4.458;2023-08-08T12:28:16;20.70;99.90
25112;DHT22;13092;51.996;4.458;2023-08-08T12:30:45;20.80;99.90
25112;DHT22;13092;51.996;4.458;2023-08-08T12:33:14;21.00;99.90
25112;DHT22;13092;51.996;4.458;2023-08-08T12:35:43;20.90;99.90
25112;DHT22;13092;51.996;4.458;2023-08-08T12:38:13;20.90;99.90
25112;DHT22;13092;51.996;4.458;2023-08-08T12:40:42;20.80;99.90
25112;DHT22;13092;51.996;4.458;2023-08-08T12:43:10;20.70;99.90
25112;DHT22;13092;51.996;4.458;2023-08-08T12:45:44;20.70;99.90
25112;DHT22;13092;51.996;4.458;2023-08-08T12:48:14;20.70;99.90
25112;DHT22;13092;51.996;4.458;2023-08-08T12:50:42;20.80;99.90
25112;DHT22;13092;51.996;4.458;2023-08-08T12:53:13;21.00;99.90
25112;DHT22;13092;51.996;4.458;2023-08-08T12:55:42;20.90;99.90
25112;DHT22;13092;51.996;4.458;2023-08-08T12:58:10;20.80;99.90
25112;DHT22;13092;51.996;4.458;2023-08-08T13:00:39;20.90;99.90
25112;DHT22;13092;51.996;4.458;2023-08-08T13:03:07;20.90;99.90
25112;DHT22;13092;51.996;4.458;2023-08-08T13:05:37;21.00;99.90
25112;DHT22;13092;51.996;4.458;2023-08-08T13:08:07;21.00;99.90
25112;DHT22;13092;51.996;4.458;2023-08-08T13:10:36;21.00;99.90
25112;DHT22;13092;51.996;4.458;2023-08-08T13:13:05;21.20;99.90
25112;DHT22;13092;51.996;4.458;2023-08-08T13:15:34;21.40;99.90
25112;DHT22;13092;51.996;4.458;2023-08-08T13:18:04;21.40;99.90
25112;DHT22;13092;51.996;4.458;2023-08-08T13:20:32;21.30;99.90
25112;DHT22;13092;51.996;4.458;2023-08-08T13:23:02;21.20;99.90
25112;DHT22;13092;51.996;4.458;2023-08-08T13:25:34;21.00;99.90
25112;DHT22;13092;51.996;4.458;2023-08-08T13:28:02;21.10;99.90
25112;DHT22;13092;51.996;4.458;2023-08-08T13:30:31;21.30;99.90
25112;DHT22;13092;51.996;4.458;2023-08-08T13:33:01;21.30;99.90
25112;DHT22;13092;51.996;4.458;2023-08-08T13:35:29;21.30;99.90
25112;DHT22;13092;51.996;4.458;2023-08-08T13:37:58;21.10;99.90
25112;DHT22;13092;51.996;4.458;2023-08-08T13:40:27;21.00;99.90
25112;DHT22;13092;51.996;4.458;2023-08-08T13:42:55;20.90;99.90
25112;DHT22;13092;51.996;4.458;2023-08-08T13:45:27;21.10;99.90
25112;DHT22;13092;51.996;4.458;2023-08-08T13:47:56;21.30;99.90
25112;DHT22;13092;51.996;4.458;2023-08-08T13:50:24;21.40;99.90
25112;DHT22;13092;51.996;4.458;2023-08-08T13:52:53;21.50;99.90
25112;DHT22;13092;51.996;4.458;2023-08-08T13:55:22;21.40;99.90
25112;DHT22;13092;51.996;4.458;2023-08-08T13:57:51;21.20;99.90
25112;DHT22;13092;51.996;4.458;2023-08-08T14:00:21;21.00;99.90
25112;DHT22;13092;51.996;4.458;2023-08-08T14:02:49;20.80;99.90
25112;DHT22;13092;51.996;4.458;2023-08-08T14:05:18;20.90;99.90
25112;DHT22;13092;51.996;4.458;2023-08-08T14:07:46;20.90;99.90
25112;DHT22;13092;51.996;4.458;2023-08-08T14:10:14;21.10;99.90
25112;DHT22;13092;51.996;4.458;2023-08-08T14:12:43;21.00;99.90
25112;DHT22;13092;51.996;4.458;2023-08-08T14:15:13;21.10;99.90
25112;DHT22;13092;51.996;4.458;2023-08-08T14:17:41;21.10;99.90
25112;DHT22;13092;51.996;4.458;2023-08-08T14:20:10;21.30;99.90
25112;DHT22;13092;51.996;4.458;2023-08-08T14:22:39;21.40;99.90
25112;DHT22;13092;51.996;4.458;2023-08-08T14:25:08;21.40;99.90
25112;DHT22;13092;51.996;4.458;2023-08-08T14:27:36;21.30;99.90
25112;DHT22;13092;51.996;4.458;2023-08-08T14:30:05;21.20;99.90
25112;DHT22;13092;51.996;4.458;2023-08-08T14:32:35;21.20;99.90
25112;DHT22;13092;51.996;4.458;2023-08-08T14:35:05;21.10;99.90
25112;DHT22;13092;51.996;4.458;2023-08-08T14:37:35;21.10;99.90
25112;DHT22;13092;51.996;4.458;2023-08-08T14:40:05;21.20;99.90
25112;DHT22;13092;51.996;4.458;2023-08-08T14:42:33;21.20;99.90
25112;DHT22;13092;51.996;4.458;2023-08-08T14:45:02;21.20;99.90
25112;DHT22;13092;51.996;4.458;2023-08-08T14:47:30;21.20;99.90
25112;DHT22;13092;51.996;4.458;2023-08-08T14:50:00;21.30;99.90
25112;DHT22;13092;51.996;4.458;2023-08-08T14:52:29;21.20;99.90
25112;DHT22;13092;51.996;4.458;2023-08-08T14:54:57;21.20;99.90
25112;DHT22;13092;51.996;4.458;2023-08-08T14:57:25;21.10;99.90
25112;DHT22;13092;51.996;4.458;2023-08-08T14:59:53;20.90;99.90
25112;DHT22;13092;51.996;4.458;2023-08-08T15:02:21;20.90;99.90
25112;DHT22;13092;51.996;4.458;2023-08-08T15:04:50;20.80;99.90
25112;DHT22;13092;51.996;4.458;2023-08-08T15:07:20;20.70;99.90
25112;DHT22;13092;51.996;4.458;2023-08-08T15:09:48;20.60;99.90
25112;DHT22;13092;51.996;4.458;2023-08-08T15:12:18;20.50;99.90
25112;DHT22;13092;51.996;4.458;2023-08-08T15:14:46;20.40;99.90
25112;DHT22;13092;51.996;4.458;2023-08-08T15:17:15;20.30;99.90
25112;DHT22;13092;51.996;4.458;2023-08-08T15:19:44;20.20;99.90
25112;DHT22;13092;51.996;4.458;2023-08-08T15:22:12;20.10;99.90
25112;DHT22;13092;51.996;4.458;2023-08-08T15:24:42;20.00;99.90
25112;DHT22;13092;51.996;4.458;2023-08-08T15:27:10;20.00;99.90
25112;DHT22;13092;51.996;4.458;2023-08-08T15:29:38;20.00;99.90
25112;DHT22;13092;51.996;4.458;2023-08-08T15:32:06;20.00;99.90
25112;DHT22;13092;51.996;4.458;2023-08-08T15:34:35;20.00;99.90
25112;DHT22;13092;51.996;4.458;2023-08-08T15:37:04;20.00;99.90
25112;DHT22;13092;51.996;4.458;2023-08-08T15:39:32;20.00;99.90
25112;DHT22;13092;51.996;4.458;2023-08-08T15:42:02;19.90;99.90
25112;DHT22;13092;51.996;4.458;2023-08-08T15:44:30;19.90;99.90
25112;DHT22;13092;51.996;4.458;2023-08-08T15:46:58;19.80;99.90